sensor_id;sensor_type;location;lat;lon;timestamp;temperature;humidity
67101;DHT22;54019;61.746;16.106;2023-04-25T00:01:44;20.60;28.10
67101;DHT22;54019;61.746;16.106;2023-04-25T00:04:10;20.50;27.90
67101;DHT22;54019;61.746;16.106;2023-04-25T00:06:36;20.50;27.90
67101;DHT22;54019;61.746;16.106;2023-04-25T00:09:02;20.50;28.00
67101;DHT22;54019;61.746;16.106;2023-04-25T00:11:28;20.50;28.10
67101;DHT22;54019;61.746;16.106;2023-04-25T00:13:53;20.50;28.10
67101;DHT22;54019;61.746;16.106;2023-04-25T00:16:19;20.50;27.50
67101;DHT22;54019;61.746;16.106;2023-04-25T00:18:46;20.50;27.00
67101;DHT22;54019;61.746;16.106;2023-04-25T00:21:12;20.60;26.80
67101;DHT22;54019;61.746;16.106;2023-04-25T00:23:38;20.60;26.70
67101;DHT22;54019;61.746;16.106;2023-04-25T00:26:04;20.70;26.70
67101;DHT22;54019;61.746;16.106;2023-04-25T00:28:29;20.70;26.60
67101;DHT22;54019;61.746;16.106;2023-04-25T00:30:55;20.70;26.70
67101;DHT22;54019;61.746;16.106;2023-04-25T00:33:21;20.80;26.70
67101;DHT22;54019;61.746;16.106;2023-04-25T00:35:48;20.80;26.80
67101;DHT22;54019;61.746;16.106;2023-04-25T00:38:14;20.70;26.80
67101;DHT22;54019;61.746;16.106;2023-04-25T00:40:40;20.70;26.90
67101;DHT22;54019;61.746;16.106;2023-04-25T00:43:05;20.60;27.00
67101;DHT22;54019;61.746;16.106;2023-04-25T00:45:31;20.60;27.10
67101;DHT22;54019;61.746;16.106;2023-04-25T00:47:57;20.60;27.50
67101;DHT22;54019;61.746;16.106;2023-04-25T00:50:23;20.60;27.50
67101;DHT22;54019;61.746;16.106;2023-04-25T00:52:50;20.60;27.70
67101;DHT22;54019;61.746;16.106;2023-04-25T00:55:16;20.50;27.60
67101;DHT22;54019;61.746;16.106;2023-04-25T00:57:43;20.50;27.70
67101;DHT22;54019;61.746;16.106;2023-04-25T01:00:09;20.50;27.40
67101;DHT22;54019;61.746;16.106;2023-04-25T01:02:36;20.50;27.70
67101;DHT22;54019;61.746;16.106;2023-04-25T01:05:02;20.40;27.50
67101;DHT22;54019;61.746;16.106;2023-04-25T01:07:28;20.40;27.60
67101;DHT22;54019;61.746;16.106;2023-04-25T01:09:55;20.40;27.50
67101;DHT22;54019;61.746;16.106;2023-04-25T01:12:21;20.50;27.10
67101;DHT22;54019;61.746;16.106;2023-04-25T01:14:46;20.50;26.80
67101;DHT22;54019;61.746;16.106;2023-04-25T01:17:13;20.50;26.60
67101;DHT22;54019;61.746;16.106;2023-04-25T01:19:39;20.60;26.30
67101;DHT22;54019;61.746;16.106;2023-04-25T01:22:06;20.70;26.30
67101;DHT22;54019;61.746;16.106;2023-04-25T01:24:32;20.70;26.30
67101;DHT22;54019;61.746;16.106;2023-04-25T01:26:58;20.70;26.20
67101;DHT22;54019;61.746;16.106;2023-04-25T01:29:26;20.70;26.20
67101;DHT22;54019;61.746;16.106;2023-04-25T01:31:52;20.70;26.20
67101;DHT22;54019;61.746;16.106;2023-04-25T01:34:18;20.70;26.30
67101;DHT22;54019;61.746;16.106;2023-04-25T01:36:44;20.60;26.30
67101;DHT22;54019;61.746;16.106;2023-04-25T01:39:11;20.60;26.60
67101;DHT22;54019;61.746;16.106;2023-04-25T01:41:37;20.60;27.00
67101;DHT22;54019;61.746;16.106;2023-04-25T01:44:04;20.60;27.10
67101;DHT22;54019;61.746;16.106;2023-04-25T01:46:29;20.60;27.10
67101;DHT22;54019;61.746;16.106;2023-04-25T01:48:55;20.50;27.20
67101;DHT22;54019;61.746;16.106;2023-04-25T01:51:21;20.50;27.30
67101;DHT22;54019;61.746;16.106;2023-04-25T01:53:47;20.50;27.30
67101;DHT22;54019;61.746;16.106;2023-04-25T01:56:14;20.50;27.10
67101;DHT22;54019;61.746;16.106;2023-04-25T01:58:40;20.40;27.10
67101;DHT22;54019;61.746;16.106;2023-04-25T02:01:06;20.40;27.10
67101;DHT22;54019;61.746;16.106;2023-04-25T02:03:32;20.40;27.30
67101;DHT22;54019;61.746;16.106;2023-04-25T02:05:58;20.40;26.80
67101;DHT22;54019;61.746;16.106;2023-04-25T02:08:23;20.50;26.80
67101;DHT22;54019;61.746;16.106;2023-04-25T02:10:49;20.50;26.60
67101;DHT22;54019;61.746;16.106;2023-04-25T02:13:16;20.60;26.10
67101;DHT22;54019;61.746;16.106;2023-04-25T02:15:42;20.60;26.40
67101;DHT22;54019;61.746;16.106;2023-04-25T02:18:08;20.60;25.80
67101;DHT22;54019;61.746;16.106;2023-04-25T02:20:34;20.60;25.90
67101;DHT22;54019;61.746;16.106;2023-04-25T02:23:00;20.60;25.80
67101;DHT22;54019;61.746;16.106;2023-04-25T02:25:26;20.60;25.90
67101;DHT22;54019;61.746;16.106;2023-04-25T02:27:52;20.60;25.90
67101;DHT22;54019;61.746;16.106;2023-04-25T02:30:19;20.60;25.90
67101;DHT22;54019;61.746;16.106;2023-04-25T02:32:45;20.70;26.40
67101;DHT22;54019;61.746;16.106;2023-04-25T02:35:11;20.60;26.60
67101;DHT22;54019;61.746;16.106;2023-04-25T02:37:38;20.60;26.70
67101;DHT22;54019;61.746;16.106;2023-04-25T02:40:05;20.60;26.80
67101;DHT22;54019;61.746;16.106;2023-04-25T02:42:31;20.50;26.80
67101;DHT22;54019;61.746;16.106;2023-04-25T02:44:56;20.50;26.80
67101;DHT22;54019;61.746;16.106;2023-04-25T02:47:24;20.50;27.00
67101;DHT22;54019;61.746;16.106;2023-04-25T02:49:49;20.40;27.00
67101;DHT22;54019;61.746;16.106;2023-04-25T02:52:15;20.40;27.00
67101;DHT22;54019;61.746;16.106;2023-04-25T02:54:41;20.40;27.00
67101;DHT22;54019;61.746;16.106;2023-04-25T02:57:07;20.40;26.90
67101;DHT22;54019;61.746;16.106;2023-04-25T02:59:33;20.40;26.70
67101;DHT22;54019;61.746;16.106;2023-04-25T03:01:58;20.50;27.20
67101;DHT22;54019;61.746;16.106;2023-04-25T03:04:26;20.50;26.10
67101;DHT22;54019;61.746;16.106;2023-04-25T03:06:51;20.60;25.80
67101;DHT22;54019;61.746;16.106;2023-04-25T03:09:17;20.60;25.60
67101;DHT22;54019;61.746;16.106;2023-04-25T03:11:44;20.60;25.60
67101;DHT22;54019;61.746;16.106;2023-04-25T03:14:09;20.60;25.70
67101;DHT22;54019;61.746;16.106;2023-04-25T03:16:35;20.60;25.70
67101;DHT22;54019;61.746;16.106;2023-04-25T03:19:01;20.60;25.60
67101;DHT22;54019;61.746;16.106;2023-04-25T03:21:29;20.60;25.60
67101;DHT22;54019;61.746;16.106;2023-04-25T03:23:55;20.60;25.70
67101;DHT22;54019;61.746;16.106;2023-04-25T03:26:21;20.60;25.80
67101;DHT22;54019;61.746;16.106;2023-04-25T03:28:46;20.60;26.40
67101;DHT22;54019;61.746;16.106;2023-04-25T03:31:12;20.60;26.50
67101;DHT22;54019;61.746;16.106;2023-04-25T03:33:38;20.50;26.50
67101;DHT22;54019;61.746;16.106;2023-04-25T03:36:04;20.50;26.60
67101;DHT22;54019;61.746;16.106;2023-04-25T03:38:32;20.50;26.70
67101;DHT22;54019;61.746;16.106;2023-04-25T03:40:57;20.40;26.70
67101;DHT22;54019;61.746;16.106;2023-04-25T03:43:23;20.40;26.80
67101;DHT22;54019;61.746;16.106;2023-04-25T03:45:49;20.40;26.80
67101;DHT22;54019;61.746;16.106;2023-04-25T03:48:15;20.40;26.50
67101;DHT22;54019;61.746;16.106;2023-04-25T03:50:41;20.40;26.40
67101;DHT22;54019;61.746;16.106;2023-04-25T03:53:07;20.40;26.20
67101;DHT22;54019;61.746;16.106;2023-04-25T03:55:34;20.40;25.90
67101;DHT22;54019;61.746;16.106;2023-04-25T03:58:00;20.50;25.60
67101;DHT22;54019;61.746;16.106;2023-04-25T04:00:26;20.50;25.50
67101;DHT22;54019;61.746;16.106;2023-04-25T04:02:51;20.60;25.40
67101;DHT22;54019;61.746;16.106;2023-04-25T04:05:17;20.60;25.40
67101;DHT22;54019;61.746;16.106;2023-04-25T04:07:43;20.60;25.40
67101;DHT22;54019;61.746;16.106;2023-04-25T04:10:09;20.60;25.50
67101;DHT22;54019;61.746;16.106;2023-04-25T04:12:37;20.60;25.80
67101;DHT22;54019;61.746;16.106;2023-04-25T04:15:04;20.60;26.20
67101;DHT22;54019;61.746;16.106;2023-04-25T04:17:30;20.60;26.60
67101;DHT22;54019;61.746;16.106;2023-04-25T04:19:56;20.60;26.70
67101;DHT22;54019;61.746;16.106;2023-04-25T04:22:22;20.60;26.60
67101;DHT22;54019;61.746;16.106;2023-04-25T04:24:48;20.50;26.90
67101;DHT22;54019;61.746;16.106;2023-04-25T04:27:14;20.50;26.90
67101;DHT22;54019;61.746;16.106;2023-04-25T04:29:41;20.50;27.20
67101;DHT22;54019;61.746;16.106;2023-04-25T04:32:06;20.50;27.10
67101;DHT22;54019;61.746;16.106;2023-04-25T04:34:32;20.40;27.20
67101;DHT22;54019;61.746;16.106;2023-04-25T04:36:58;20.40;27.20
67101;DHT22;54019;61.746;16.106;2023-04-25T04:39:24;20.40;27.10
67101;DHT22;54019;61.746;16.106;2023-04-25T04:41:49;20.40;28.00
67101;DHT22;54019;61.746;16.106;2023-04-25T04:44:15;20.40;27.40
67101;DHT22;54019;61.746;16.106;2023-04-25T04:46:42;20.40;27.30
67101;DHT22;54019;61.746;16.106;2023-04-25T04:49:08;20.40;27.30
67101;DHT22;54019;61.746;16.106;2023-04-25T04:51:34;20.40;27.00
67101;DHT22;54019;61.746;16.106;2023-04-25T04:54:00;20.40;26.40
67101;DHT22;54019;61.746;16.106;2023-04-25T04:56:26;20.50;26.40
67101;DHT22;54019;61.746;16.106;2023-04-25T04:58:51;20.60;26.20
67101;DHT22;54019;61.746;16.106;2023-04-25T05:01:17;20.60;26.10
67101;DHT22;54019;61.746;16.106;2023-04-25T05:03:44;20.70;26.10
67101;DHT22;54019;61.746;16.106;2023-04-25T05:06:10;20.60;26.20
67101;DHT22;54019;61.746;16.106;2023-04-25T05:08:36;20.60;26.10
67101;DHT22;54019;61.746;16.106;2023-04-25T05:11:02;20.70;26.40
67101;DHT22;54019;61.746;16.106;2023-04-25T05:13:28;20.70;26.60
67101;DHT22;54019;61.746;16.106;2023-04-25T05:15:54;20.60;26.40
67101;DHT22;54019;61.746;16.106;2023-04-25T05:18:19;20.60;27.10
67101;DHT22;54019;61.746;16.106;2023-04-25T05:20:47;20.60;27.10
67101;DHT22;54019;61.746;16.106;2023-04-25T05:23:13;20.60;27.30
67101;DHT22;54019;61.746;16.106;2023-04-25T05:25:38;20.60;27.60
67101;DHT22;54019;61.746;16.106;2023-04-25T05:28:04;20.50;27.90
67101;DHT22;54019;61.746;16.106;2023-04-25T05:30:30;20.50;28.10
67101;DHT22;54019;61.746;16.106;2023-04-25T05:32:56;20.50;27.80
67101;DHT22;54019;61.746;16.106;2023-04-25T05:35:22;20.50;27.70
67101;DHT22;54019;61.746;16.106;2023-04-25T05:37:49;20.40;27.60
67101;DHT22;54019;61.746;16.106;2023-04-25T05:40:15;20.40;27.40
67101;DHT22;54019;61.746;16.106;2023-04-25T05:42:41;20.40;27.50
67101;DHT22;54019;61.746;16.106;2023-04-25T05:45:07;20.40;27.50
67101;DHT22;54019;61.746;16.106;2023-04-25T05:47:33;20.40;27.30
67101;DHT22;54019;61.746;16.106;2023-04-25T05:49:58;20.50;27.10
67101;DHT22;54019;61.746;16.106;2023-04-25T05:52:24;20.50;26.70
67101;DHT22;54019;61.746;16.106;2023-04-25T05:54:51;20.50;26.30
67101;DHT22;54019;61.746;16.106;2023-04-25T05:57:22;20.60;26.30
67101;DHT22;54019;61.746;16.106;2023-04-25T05:59:48;20.60;26.20
67101;DHT22;54019;61.746;16.106;2023-04-25T06:02:14;20.60;26.20
67101;DHT22;54019;61.746;16.106;2023-04-25T06:04:39;20.60;26.20
67101;DHT22;54019;61.746;16.106;2023-04-25T06:07:05;20.60;26.30
67101;DHT22;54019;61.746;16.106;2023-04-25T06:09:31;20.60;26.40
67101;DHT22;54019;61.746;16.106;2023-04-25T06:11:58;20.60;26.50
67101;DHT22;54019;61.746;16.106;2023-04-25T06:14:24;20.60;26.50
67101;DHT22;54019;61.746;16.106;2023-04-25T06:16:49;20.60;26.70
67101;DHT22;54019;61.746;16.106;2023-04-25T06:19:15;20.50;32.20
67101;DHT22;54019;61.746;16.106;2023-04-25T06:21:42;20.50;31.90
67101;DHT22;54019;61.746;16.106;2023-04-25T06:24:08;20.50;32.30
67101;DHT22;54019;61.746;16.106;2023-04-25T06:26:34;20.50;31.60
67101;DHT22;54019;61.746;16.106;2023-04-25T06:29:01;20.50;31.70
67101;DHT22;54019;61.746;16.106;2023-04-25T06:31:27;20.50;30.90
67101;DHT22;54019;61.746;16.106;2023-04-25T06:33:53;20.40;31.20
67101;DHT22;54019;61.746;16.106;2023-04-25T06:36:19;20.40;31.10
67101;DHT22;54019;61.746;16.106;2023-04-25T06:38:45;20.40;30.50
67101;DHT22;54019;61.746;16.106;2023-04-25T06:41:10;20.40;30.10
67101;DHT22;54019;61.746;16.106;2023-04-25T06:43:36;20.40;30.20
67101;DHT22;54019;61.746;16.106;2023-04-25T06:46:03;20.40;30.20
67101;DHT22;54019;61.746;16.106;2023-04-25T06:48:29;20.40;30.10
67101;DHT22;54019;61.746;16.106;2023-04-25T06:50:55;20.40;29.50
67101;DHT22;54019;61.746;16.106;2023-04-25T06:53:21;20.40;28.90
67101;DHT22;54019;61.746;16.106;2023-04-25T06:55:47;20.50;28.50
67101;DHT22;54019;61.746;16.106;2023-04-25T06:58:12;20.50;28.20
67101;DHT22;54019;61.746;16.106;2023-04-25T07:00:38;20.60;28.20
67101;DHT22;54019;61.746;16.106;2023-04-25T07:03:06;20.60;28.30
67101;DHT22;54019;61.746;16.106;2023-04-25T07:05:31;20.70;28.40
67101;DHT22;54019;61.746;16.106;2023-04-25T07:07:57;20.70;28.50
67101;DHT22;54019;61.746;16.106;2023-04-25T07:10:23;20.60;28.30
67101;DHT22;54019;61.746;16.106;2023-04-25T07:12:49;20.70;28.60
67101;DHT22;54019;61.746;16.106;2023-04-25T07:15:14;20.60;28.60
67101;DHT22;54019;61.746;16.106;2023-04-25T07:17:40;20.60;28.70
67101;DHT22;54019;61.746;16.106;2023-04-25T07:20:08;20.60;29.50
67101;DHT22;54019;61.746;16.106;2023-04-25T07:22:34;20.60;29.30
67101;DHT22;54019;61.746;16.106;2023-04-25T07:25:00;20.60;28.80
67101;DHT22;54019;61.746;16.106;2023-04-25T07:27:26;20.60;29.30
67101;DHT22;54019;61.746;16.106;2023-04-25T07:29:51;20.60;29.20
67101;DHT22;54019;61.746;16.106;2023-04-25T07:32:17;20.60;29.30
67101;DHT22;54019;61.746;16.106;2023-04-25T07:34:43;20.60;28.90
67101;DHT22;54019;61.746;16.106;2023-04-25T07:37:10;20.50;29.00
67101;DHT22;54019;61.746;16.106;2023-04-25T07:39:36;20.50;28.90
67101;DHT22;54019;61.746;16.106;2023-04-25T07:42:02;20.40;28.80
67101;DHT22;54019;61.746;16.106;2023-04-25T07:44:28;20.40;29.70
67101;DHT22;54019;61.746;16.106;2023-04-25T07:46:54;20.40;29.80
67101;DHT22;54019;61.746;16.106;2023-04-25T07:49:19;20.50;29.50
67101;DHT22;54019;61.746;16.106;2023-04-25T07:51:45;20.50;29.90
67101;DHT22;54019;61.746;16.106;2023-04-25T07:54:14;20.50;29.60
67101;DHT22;54019;61.746;16.106;2023-04-25T07:56:40;20.60;29.40
67101;DHT22;54019;61.746;16.106;2023-04-25T07:59:06;20.80;29.20
67101;DHT22;54019;61.746;16.106;2023-04-25T08:01:31;20.70;28.80
67101;DHT22;54019;61.746;16.106;2023-04-25T08:03:57;20.80;28.30
67101;DHT22;54019;61.746;16.106;2023-04-25T08:06:23;20.70;28.10
67101;DHT22;54019;61.746;16.106;2023-04-25T08:08:49;20.80;28.10
67101;DHT22;54019;61.746;16.106;2023-04-25T08:11:16;20.80;28.00
67101;DHT22;54019;61.746;16.106;2023-04-25T08:13:42;20.80;27.90
67101;DHT22;54019;61.746;16.106;2023-04-25T08:16:07;20.80;27.90
67101;DHT22;54019;61.746;16.106;2023-04-25T08:18:33;20.80;27.80
67101;DHT22;54019;61.746;16.106;2023-04-25T08:20:59;20.80;27.70
67101;DHT22;54019;61.746;16.106;2023-04-25T08:23:25;20.70;27.80
67101;DHT22;54019;61.746;16.106;2023-04-25T08:25:50;20.70;27.70
67101;DHT22;54019;61.746;16.106;2023-04-25T08:28:18;20.70;27.70
67101;DHT22;54019;61.746;16.106;2023-04-25T08:30:43;20.60;27.60
67101;DHT22;54019;61.746;16.106;2023-04-25T08:33:09;20.60;27.80
67101;DHT22;54019;61.746;16.106;2023-04-25T08:35:35;20.60;27.80
67101;DHT22;54019;61.746;16.106;2023-04-25T08:38:01;20.60;27.80
67101;DHT22;54019;61.746;16.106;2023-04-25T08:40:27;20.60;27.80
67101;DHT22;54019;61.746;16.106;2023-04-25T08:42:53;20.60;27.70
67101;DHT22;54019;61.746;16.106;2023-04-25T08:45:22;20.60;27.70
67101;DHT22;54019;61.746;16.106;2023-04-25T08:47:48;20.50;27.80
67101;DHT22;54019;61.746;16.106;2023-04-25T08:50:17;20.50;27.90
67101;DHT22;54019;61.746;16.106;2023-04-25T08:52:44;20.50;28.00
67101;DHT22;54019;61.746;16.106;2023-04-25T08:55:12;20.50;28.00
67101;DHT22;54019;61.746;16.106;2023-04-25T08:57:39;20.50;28.00
67101;DHT22;54019;61.746;16.106;2023-04-25T09:00:07;20.50;28.50
67101;DHT22;54019;61.746;16.106;2023-04-25T09:02:34;20.50;27.40
67101;DHT22;54019;61.746;16.106;2023-04-25T09:05:00;20.60;27.40
67101;DHT22;54019;61.746;16.106;2023-04-25T09:07:26;20.60;27.10
67101;DHT22;54019;61.746;16.106;2023-04-25T09:09:52;20.70;27.10
67101;DHT22;54019;61.746;16.106;2023-04-25T09:12:19;20.80;26.90
67101;DHT22;54019;61.746;16.106;2023-04-25T09:15:01;20.90;26.90
67101;DHT22;54019;61.746;16.106;2023-04-25T09:17:27;20.90;26.90
67101;DHT22;54019;61.746;16.106;2023-04-25T09:19:55;20.90;26.90
67101;DHT22;54019;61.746;16.106;2023-04-25T09:22:21;20.90;26.80
67101;DHT22;54019;61.746;16.106;2023-04-25T09:24:47;20.90;26.80
67101;DHT22;54019;61.746;16.106;2023-04-25T09:27:18;20.90;26.90
67101;DHT22;54019;61.746;16.106;2023-04-25T09:29:47;20.90;27.60
67101;DHT22;54019;61.746;16.106;2023-04-25T09:32:21;20.90;27.90
67101;DHT22;54019;61.746;16.106;2023-04-25T09:34:48;20.90;28.10
67101;DHT22;54019;61.746;16.106;2023-04-25T09:37:19;20.90;27.80
67101;DHT22;54019;61.746;16.106;2023-04-25T09:39:45;20.90;27.90
67101;DHT22;54019;61.746;16.106;2023-04-25T09:42:11;21.00;27.60
67101;DHT22;54019;61.746;16.106;2023-04-25T09:44:37;21.00;28.20
67101;DHT22;54019;61.746;16.106;2023-04-25T09:47:10;20.90;28.00
67101;DHT22;54019;61.746;16.106;2023-04-25T09:49:39;20.90;27.90
67101;DHT22;54019;61.746;16.106;2023-04-25T09:52:05;20.90;28.00
67101;DHT22;54019;61.746;16.106;2023-04-25T09:54:32;20.80;28.30
67101;DHT22;54019;61.746;16.106;2023-04-25T09:57:00;20.80;28.20
67101;DHT22;54019;61.746;16.106;2023-04-25T09:59:30;20.80;28.20
67101;DHT22;54019;61.746;16.106;2023-04-25T10:01:57;20.80;27.50
67101;DHT22;54019;61.746;16.106;2023-04-25T10:04:25;20.80;27.10
67101;DHT22;54019;61.746;16.106;2023-04-25T10:06:55;20.80;29.90
67101;DHT22;54019;61.746;16.106;2023-04-25T10:09:24;20.80;29.70
67101;DHT22;54019;61.746;16.106;2023-04-25T10:11:53;20.90;29.40
67101;DHT22;54019;61.746;16.106;2023-04-25T10:14:19;20.90;29.50
67101;DHT22;54019;61.746;16.106;2023-04-25T10:16:45;21.00;29.10
67101;DHT22;54019;61.746;16.106;2023-04-25T10:19:12;21.00;29.00
67101;DHT22;54019;61.746;16.106;2023-04-25T10:21:44;21.00;28.80
67101;DHT22;54019;61.746;16.106;2023-04-25T10:24:11;21.00;28.30
67101;DHT22;54019;61.746;16.106;2023-04-25T10:26:38;21.00;29.00
67101;DHT22;54019;61.746;16.106;2023-04-25T10:29:05;21.00;28.40
67101;DHT22;54019;61.746;16.106;2023-04-25T10:31:31;21.10;28.80
67101;DHT22;54019;61.746;16.106;2023-04-25T10:33:57;21.10;28.40
67101;DHT22;54019;61.746;16.106;2023-04-25T10:36:24;21.10;27.90
67101;DHT22;54019;61.746;16.106;2023-04-25T10:38:51;21.10;27.50
67101;DHT22;54019;61.746;16.106;2023-04-25T10:41:18;21.10;27.00
67101;DHT22;54019;61.746;16.106;2023-04-25T10:43:45;21.10;26.70
67101;DHT22;54019;61.746;16.106;2023-04-25T10:46:17;21.10;26.50
67101;DHT22;54019;61.746;16.106;2023-04-25T10:48:47;21.10;26.40
67101;DHT22;54019;61.746;16.106;2023-04-25T10:51:20;21.10;26.40
67101;DHT22;54019;61.746;16.106;2023-04-25T10:53:46;21.10;26.30
67101;DHT22;54019;61.746;16.106;2023-04-25T10:56:17;21.00;26.00
67101;DHT22;54019;61.746;16.106;2023-04-25T10:58:43;21.00;26.00
67101;DHT22;54019;61.746;16.106;2023-04-25T11:01:09;21.00;26.60
67101;DHT22;54019;61.746;16.106;2023-04-25T11:03:40;20.90;26.00
67101;DHT22;54019;61.746;16.106;2023-04-25T11:06:11;20.90;26.20
67101;DHT22;54019;61.746;16.106;2023-04-25T11:08:48;20.90;26.30
67101;DHT22;54019;61.746;16.106;2023-04-25T11:11:14;20.80;26.30
67101;DHT22;54019;61.746;16.106;2023-04-25T11:13:40;20.80;26.30
67101;DHT22;54019;61.746;16.106;2023-04-25T11:16:17;20.80;26.40
67101;DHT22;54019;61.746;16.106;2023-04-25T11:18:45;20.80;26.10
67101;DHT22;54019;61.746;16.106;2023-04-25T11:21:11;20.80;26.50
67101;DHT22;54019;61.746;16.106;2023-04-25T11:23:37;20.80;26.50
67101;DHT22;54019;61.746;16.106;2023-04-25T11:26:03;20.70;26.40
67101;DHT22;54019;61.746;16.106;2023-04-25T11:28:29;20.70;26.40
67101;DHT22;54019;61.746;16.106;2023-04-25T11:30:55;20.70;26.40
67101;DHT22;54019;61.746;16.106;2023-04-25T11:33:23;20.70;26.40
67101;DHT22;54019;61.746;16.106;2023-04-25T11:35:53;20.60;26.30
67101;DHT22;54019;61.746;16.106;2023-04-25T11:38:19;20.60;26.30
67101;DHT22;54019;61.746;16.106;2023-04-25T11:40:49;20.60;26.30
67101;DHT22;54019;61.746;16.106;2023-04-25T11:43:15;20.60;26.30
67101;DHT22;54019;61.746;16.106;2023-04-25T11:45:46;20.60;26.30
67101;DHT22;54019;61.746;16.106;2023-04-25T11:48:12;20.50;26.30
67101;DHT22;54019;61.746;16.106;2023-04-25T11:50:39;20.50;26.20
67101;DHT22;54019;61.746;16.106;2023-04-25T11:53:06;20.50;26.30
67101;DHT22;54019;61.746;16.106;2023-04-25T11:55:32;20.40;26.60
67101;DHT22;54019;61.746;16.106;2023-04-25T11:57:59;20.40;26.70
67101;DHT22;54019;61.746;16.106;2023-04-25T12:00:26;20.40;27.50
67101;DHT22;54019;61.746;16.106;2023-04-25T12:02:53;20.40;27.30
67101;DHT22;54019;61.746;16.106;2023-04-25T12:05:19;20.40;27.60
67101;DHT22;54019;61.746;16.106;2023-04-25T12:07:46;20.40;27.80
67101;DHT22;54019;61.746;16.106;2023-04-25T12:10:15;20.40;27.70
67101;DHT22;54019;61.746;16.106;2023-04-25T12:12:43;20.40;27.60
67101;DHT22;54019;61.746;16.106;2023-04-25T12:15:10;20.40;27.50
67101;DHT22;54019;61.746;16.106;2023-04-25T12:17:36;20.50;27.70
67101;DHT22;54019;61.746;16.106;2023-04-25T12:20:07;20.50;27.60
67101;DHT22;54019;61.746;16.106;2023-04-25T12:22:33;20.50;27.90
67101;DHT22;54019;61.746;16.106;2023-04-25T12:24:59;20.60;28.10
67101;DHT22;54019;61.746;16.106;2023-04-25T12:27:26;20.60;28.10
67101;DHT22;54019;61.746;16.106;2023-04-25T12:29:53;20.70;28.10
67101;DHT22;54019;61.746;16.106;2023-04-25T12:32:19;20.70;28.30
67101;DHT22;54019;61.746;16.106;2023-04-25T12:34:45;20.70;28.90
67101;DHT22;54019;61.746;16.106;2023-04-25T12:37:11;20.70;29.30
67101;DHT22;54019;61.746;16.106;2023-04-25T12:39:37;20.70;28.90
67101;DHT22;54019;61.746;16.106;2023-04-25T12:42:03;20.70;30.50
67101;DHT22;54019;61.746;16.106;2023-04-25T12:44:30;20.70;29.90
67101;DHT22;54019;61.746;16.106;2023-04-25T12:46:56;20.70;30.60
67101;DHT22;54019;61.746;16.106;2023-04-25T12:49:22;20.70;30.50
67101;DHT22;54019;61.746;16.106;2023-04-25T12:51:48;20.60;30.70
67101;DHT22;54019;61.746;16.106;2023-04-25T12:54:13;20.70;29.90
67101;DHT22;54019;61.746;16.106;2023-04-25T12:56:40;20.60;29.80
67101;DHT22;54019;61.746;16.106;2023-04-25T12:59:06;20.60;29.50
67101;DHT22;54019;61.746;16.106;2023-04-25T13:01:34;20.60;29.30
67101;DHT22;54019;61.746;16.106;2023-04-25T13:03:59;20.60;29.50
67101;DHT22;54019;61.746;16.106;2023-04-25T13:06:25;20.60;29.40
67101;DHT22;54019;61.746;16.106;2023-04-25T13:08:51;20.60;29.20
67101;DHT22;54019;61.746;16.106;2023-04-25T13:11:17;20.60;29.10
67101;DHT22;54019;61.746;16.106;2023-04-25T13:13:43;20.60;32.80
67101;DHT22;54019;61.746;16.106;2023-04-25T13:16:09;20.60;34.30
67101;DHT22;54019;61.746;16.106;2023-04-25T13:18:36;20.60;36.00
67101;DHT22;54019;61.746;16.106;2023-04-25T13:21:02;20.60;36.70
67101;DHT22;54019;61.746;16.106;2023-04-25T13:23:29;20.60;36.10
67101;DHT22;54019;61.746;16.106;2023-04-25T13:25:55;20.60;35.70
67101;DHT22;54019;61.746;16.106;2023-04-25T13:28:21;20.60;35.80
67101;DHT22;54019;61.746;16.106;2023-04-25T13:30:47;20.60;35.40
67101;DHT22;54019;61.746;16.106;2023-04-25T13:33:12;20.60;34.90
67101;DHT22;54019;61.746;16.106;2023-04-25T13:35:40;20.60;34.80
67101;DHT22;54019;61.746;16.106;2023-04-25T13:38:06;20.60;34.40
67101;DHT22;54019;61.746;16.106;2023-04-25T13:40:32;20.60;34.20
67101;DHT22;54019;61.746;16.106;2023-04-25T13:42:58;20.60;33.60
67101;DHT22;54019;61.746;16.106;2023-04-25T13:45:24;20.60;33.20
67101;DHT22;54019;61.746;16.106;2023-04-25T13:47:50;20.60;32.70
67101;DHT22;54019;61.746;16.106;2023-04-25T13:50:16;20.60;32.30
67101;DHT22;54019;61.746;16.106;2023-04-25T13:52:43;20.60;32.10
67101;DHT22;54019;61.746;16.106;2023-04-25T13:55:09;20.60;32.00
67101;DHT22;54019;61.746;16.106;2023-04-25T13:57:35;20.60;31.80
67101;DHT22;54019;61.746;16.106;2023-04-25T14:00:02;20.60;31.90
67101;DHT22;54019;61.746;16.106;2023-04-25T14:02:28;20.60;31.90
67101;DHT22;54019;61.746;16.106;2023-04-25T14:04:54;20.60;30.90
67101;DHT22;54019;61.746;16.106;2023-04-25T14:07:20;20.70;31.90
67101;DHT22;54019;61.746;16.106;2023-04-25T14:09:47;20.60;31.10
67101;DHT22;54019;61.746;16.106;2023-04-25T14:12:13;20.60;30.30
67101;DHT22;54019;61.746;16.106;2023-04-25T14:14:38;20.50;29.80
67101;DHT22;54019;61.746;16.106;2023-04-25T14:17:04;20.40;29.60
67101;DHT22;54019;61.746;16.106;2023-04-25T14:19:30;20.40;29.10
67101;DHT22;54019;61.746;16.106;2023-04-25T14:21:56;20.40;29.10
67101;DHT22;54019;61.746;16.106;2023-04-25T14:24:22;20.50;29.30
67101;DHT22;54019;61.746;16.106;2023-04-25T14:26:49;20.50;29.20
67101;DHT22;54019;61.746;16.106;2023-04-25T14:29:15;20.50;29.10
67101;DHT22;54019;61.746;16.106;2023-04-25T14:31:40;20.60;34.50
67101;DHT22;54019;61.746;16.106;2023-04-25T14:34:06;20.70;37.20
67101;DHT22;54019;61.746;16.106;2023-04-25T14:36:33;20.80;35.20
67101;DHT22;54019;61.746;16.106;2023-04-25T14:38:59;20.80;34.40
67101;DHT22;54019;61.746;16.106;2023-04-25T14:41:25;20.90;34.00
67101;DHT22;54019;61.746;16.106;2023-04-25T14:43:52;20.80;33.80
67101;DHT22;54019;61.746;16.106;2023-04-25T14:46:18;20.80;33.40
67101;DHT22;54019;61.746;16.106;2023-04-25T14:48:45;20.90;33.10
67101;DHT22;54019;61.746;16.106;2023-04-25T14:51:11;20.80;33.10
67101;DHT22;54019;61.746;16.106;2023-04-25T14:53:37;20.80;32.80
67101;DHT22;54019;61.746;16.106;2023-04-25T14:56:03;20.80;33.00
67101;DHT22;54019;61.746;16.106;2023-04-25T14:58:29;20.70;32.70
67101;DHT22;54019;61.746;16.106;2023-04-25T15:00:56;20.70;32.80
67101;DHT22;54019;61.746;16.106;2023-04-25T15:03:22;20.60;32.10
67101;DHT22;54019;61.746;16.106;2023-04-25T15:05:48;20.60;32.00
67101;DHT22;54019;61.746;16.106;2023-04-25T15:08:13;20.60;31.80
67101;DHT22;54019;61.746;16.106;2023-04-25T15:10:39;20.60;31.50